Guanaja, Honduras
Current Conditions -  °F | °C
As of 8:00 PM on Friday 24 Oct 2014 (Local Time) from MHRO Reporting Station
Few Clouds Few Clouds  
Wind Chill: 82°   Ceiling: Unl
Heat Index: 89°   Visibility: 6mi
Dew Point: 75°   Wind: 7mph
Humidity: 79%   Direction: 280°W
Pressure: 29.83"   Gusts: NA
Location:  16.43°N, 85.88°W
Report Text: MHRO 250200Z 28006KT 9999 FEW020CB 28/24 Q1010 A2983 NOSIG
Loading
Personal Weather Stations






























Interactive Weather Map New forecast layout! Learn more

10-Day Weather Forecast

Advertisements
Track Severe Weather on mobile